sensor_id;sensor_type;location;lat;lon;timestamp;pressure;altitude;pressure_sealevel;temperature;humidity
967;BME280;56108;48.730;9.304;2023-08-31T00:01:59;96807.19;;;12.54;100.00
967;BME280;56108;48.730;9.304;2023-08-31T00:04:09;96811.78;;;12.52;100.00
967;BME280;56108;48.730;9.304;2023-08-31T00:06:20;96815.03;;;12.56;100.00
967;BME280;56108;48.730;9.304;2023-08-31T00:08:30;96807.31;;;12.63;100.00
967;BME280;56108;48.730;9.304;2023-08-31T00:10:43;96807.91;;;12.66;100.00
967;BME280;56108;48.730;9.304;2023-08-31T00:12:52;96807.06;;;12.66;100.00
967;BME280;56108;48.730;9.304;2023-08-31T00:15:00;96803.53;;;12.65;100.00
967;BME280;56108;48.730;9.304;2023-08-31T00:17:09;96796.22;;;12.58;100.00
967;BME280;56108;48.730;9.304;2023-08-31T00:19:18;96792.16;;;12.53;100.00
967;BME280;56108;48.730;9.304;2023-08-31T00:21:27;96795.53;;;12.56;100.00
967;BME280;56108;48.730;9.304;2023-08-31T00:23:35;96786.94;;;12.52;100.00
967;BME280;56108;48.730;9.304;2023-08-31T00:25:48;96787.38;;;12.57;100.00
967;BME280;56108;48.730;9.304;2023-08-31T00:27:57;96794.97;;;12.62;100.00
967;BME280;56108;48.730;9.304;2023-08-31T00:30:11;96795.66;;;12.73;100.00
967;BME280;56108;48.730;9.304;2023-08-31T00:32:20;96795.25;;;12.78;100.00
967;BME280;56108;48.730;9.304;2023-08-31T00:34:29;96800.03;;;12.65;100.00
967;BME280;56108;48.730;9.304;2023-08-31T00:36:38;96794.94;;;12.52;100.00
967;BME280;56108;48.730;9.304;2023-08-31T00:38:48;96797.19;;;12.57;100.00
967;BME280;56108;48.730;9.304;2023-08-31T00:41:02;96800.44;;;12.50;100.00
967;BME280;56108;48.730;9.304;2023-08-31T00:43:14;96797.78;;;12.70;100.00
967;BME280;56108;48.730;9.304;2023-08-31T00:45:27;96799.19;;;12.64;100.00
967;BME280;56108;48.730;9.304;2023-08-31T00:47:33;96803.69;;;12.73;100.00
967;BME280;56108;48.730;9.304;2023-08-31T00:49:43;96794.41;;;12.68;100.00
967;BME280;56108;48.730;9.304;2023-08-31T00:51:54;96801.97;;;12.63;100.00
967;BME280;56108;48.730;9.304;2023-08-31T00:54:08;96805.09;;;12.58;100.00
967;BME280;56108;48.730;9.304;2023-08-31T00:56:20;96812.78;;;12.51;100.00
967;BME280;56108;48.730;9.304;2023-08-31T00:58:30;96814.91;;;12.58;100.00
967;BME280;56108;48.730;9.304;2023-08-31T01:00:44;96820.09;;;12.49;100.00
967;BME280;56108;48.730;9.304;2023-08-31T01:03:01;96832.56;;;12.39;100.00
967;BME280;56108;48.730;9.304;2023-08-31T01:05:25;96828.50;;;12.45;100.00
967;BME280;56108;48.730;9.304;2023-08-31T01:07:44;96832.28;;;12.42;100.00
967;BME280;56108;48.730;9.304;2023-08-31T01:10:02;96825.81;;;12.35;100.00
967;BME280;56108;48.730;9.304;2023-08-31T01:12:18;96827.59;;;12.25;100.00
967;BME280;56108;48.730;9.304;2023-08-31T01:14:32;96815.53;;;12.31;100.00
967;BME280;56108;48.730;9.304;2023-08-31T01:16:46;96820.00;;;12.20;100.00
967;BME280;56108;48.730;9.304;2023-08-31T01:18:57;96802.88;;;12.13;100.00
967;BME280;56108;48.730;9.304;2023-08-31T01:21:12;96799.72;;;11.98;100.00
967;BME280;56108;48.730;9.304;2023-08-31T01:23:44;96792.53;;;11.89;100.00
967;BME280;56108;48.730;9.304;2023-08-31T01:25:53;96777.69;;;11.96;100.00
967;BME280;56108;48.730;9.304;2023-08-31T01:28:02;96777.81;;;11.85;100.00
967;BME280;56108;48.730;9.304;2023-08-31T01:30:12;96793.00;;;11.73;100.00
967;BME280;56108;48.730;9.304;2023-08-31T01:32:20;96789.38;;;11.74;100.00
967;BME280;56108;48.730;9.304;2023-08-31T01:34:29;96782.72;;;11.69;100.00
967;BME280;56108;48.730;9.304;2023-08-31T01:36:41;96784.75;;;11.76;100.00
967;BME280;56108;48.730;9.304;2023-08-31T01:38:58;96781.78;;;11.70;100.00
967;BME280;56108;48.730;9.304;2023-08-31T01:41:13;96780.66;;;11.72;100.00
967;BME280;56108;48.730;9.304;2023-08-31T01:43:24;96779.59;;;11.64;100.00
967;BME280;56108;48.730;9.304;2023-08-31T01:45:40;96781.03;;;11.68;100.00
967;BME280;56108;48.730;9.304;2023-08-31T01:47:55;96779.91;;;11.61;100.00
967;BME280;56108;48.730;9.304;2023-08-31T01:50:17;96780.75;;;11.61;100.00
967;BME280;56108;48.730;9.304;2023-08-31T01:52:36;96785.09;;;11.62;100.00
967;BME280;56108;48.730;9.304;2023-08-31T01:54:54;96801.06;;;11.62;100.00
967;BME280;56108;48.730;9.304;2023-08-31T01:57:11;96796.34;;;11.66;100.00
967;BME280;56108;48.730;9.304;2023-08-31T01:59:57;96801.44;;;11.79;100.00
967;BME280;56108;48.730;9.304;2023-08-31T02:02:08;96801.97;;;11.72;100.00
967;BME280;56108;48.730;9.304;2023-08-31T02:05:13;96796.81;;;11.81;100.00
967;BME280;56108;48.730;9.304;2023-08-31T02:07:41;96790.59;;;11.91;100.00
967;BME280;56108;48.730;9.304;2023-08-31T02:10:19;96789.59;;;11.92;100.00
967;BME280;56108;48.730;9.304;2023-08-31T02:12:36;96780.50;;;12.05;100.00
967;BME280;56108;48.730;9.304;2023-08-31T02:15:02;96796.13;;;12.09;100.00
967;BME280;56108;48.730;9.304;2023-08-31T02:17:16;96800.84;;;12.06;100.00
967;BME280;56108;48.730;9.304;2023-08-31T02:19:32;96807.19;;;12.05;100.00
967;BME280;56108;48.730;9.304;2023-08-31T02:22:09;96817.41;;;11.99;100.00
967;BME280;56108;48.730;9.304;2023-08-31T02:24:32;96818.44;;;12.08;100.00
967;BME280;56108;48.730;9.304;2023-08-31T02:27:03;96818.69;;;11.95;100.00
967;BME280;56108;48.730;9.304;2023-08-31T02:29:31;96822.28;;;11.94;100.00
967;BME280;56108;48.730;9.304;2023-08-31T02:31:47;96825.25;;;11.91;100.00
967;BME280;56108;48.730;9.304;2023-08-31T02:34:04;96814.13;;;11.86;100.00
967;BME280;56108;48.730;9.304;2023-08-31T02:36:42;96811.09;;;12.00;100.00
967;BME280;56108;48.730;9.304;2023-08-31T02:39:23;96813.06;;;11.98;100.00
967;BME280;56108;48.730;9.304;2023-08-31T02:41:57;96811.69;;;12.04;100.00
967;BME280;56108;48.730;9.304;2023-08-31T02:45:04;96813.59;;;11.92;100.00
967;BME280;56108;48.730;9.304;2023-08-31T02:48:15;96811.63;;;11.94;100.00
967;BME280;56108;48.730;9.304;2023-08-31T02:50:28;96808.84;;;11.96;100.00
967;BME280;56108;48.730;9.304;2023-08-31T02:52:52;96810.69;;;11.95;100.00
967;BME280;56108;48.730;9.304;2023-08-31T02:55:17;96810.84;;;12.04;100.00
967;BME280;56108;48.730;9.304;2023-08-31T02:58:29;96821.34;;;12.05;100.00
967;BME280;56108;48.730;9.304;2023-08-31T03:01:36;96829.91;;;11.99;100.00
967;BME280;56108;48.730;9.304;2023-08-31T03:04:39;96832.00;;;11.95;100.00
967;BME280;56108;48.730;9.304;2023-08-31T03:07:37;96832.53;;;11.89;100.00
967;BME280;56108;48.730;9.304;2023-08-31T03:10:28;96835.91;;;11.91;100.00
967;BME280;56108;48.730;9.304;2023-08-31T03:16:03;96853.16;;;11.87;100.00
967;BME280;56108;48.730;9.304;2023-08-31T03:18:50;96843.38;;;11.97;100.00
967;BME280;56108;48.730;9.304;2023-08-31T03:25:03;96859.22;;;11.78;100.00
967;BME280;56108;48.730;9.304;2023-08-31T03:34:11;96853.41;;;11.84;100.00
967;BME280;56108;48.730;9.304;2023-08-31T03:36:54;96864.56;;;11.78;100.00
967;BME280;56108;48.730;9.304;2023-08-31T03:39:08;96858.41;;;11.77;100.00
967;BME280;56108;48.730;9.304;2023-08-31T03:41:29;96869.06;;;11.77;100.00
967;BME280;56108;48.730;9.304;2023-08-31T03:43:48;96880.09;;;11.73;100.00
967;BME280;56108;48.730;9.304;2023-08-31T03:46:16;96883.38;;;11.76;100.00
967;BME280;56108;48.730;9.304;2023-08-31T03:48:42;96884.59;;;11.72;100.00
967;BME280;56108;48.730;9.304;2023-08-31T03:57:40;96903.84;;;11.76;100.00
967;BME280;56108;48.730;9.304;2023-08-31T04:00:44;96909.81;;;11.68;100.00
967;BME280;56108;48.730;9.304;2023-08-31T04:07:03;96917.19;;;11.76;100.00
967;BME280;56108;48.730;9.304;2023-08-31T04:10:07;96915.34;;;11.76;100.00
967;BME280;56108;48.730;9.304;2023-08-31T04:13:30;96925.88;;;11.78;100.00
967;BME280;56108;48.730;9.304;2023-08-31T04:16:34;96933.63;;;11.81;100.00
967;BME280;56108;48.730;9.304;2023-08-31T04:20:09;96952.50;;;11.89;100.00
967;BME280;56108;48.730;9.304;2023-08-31T04:22:59;96946.84;;;11.83;100.00
967;BME280;56108;48.730;9.304;2023-08-31T04:26:16;96960.53;;;11.78;100.00
967;BME280;56108;48.730;9.304;2023-08-31T04:28:53;96954.94;;;11.81;100.00
967;BME280;56108;48.730;9.304;2023-08-31T04:31:17;96954.34;;;11.77;100.00
967;BME280;56108;48.730;9.304;2023-08-31T04:33:58;96963.84;;;11.70;100.00
967;BME280;56108;48.730;9.304;2023-08-31T04:36:42;96961.13;;;11.61;100.00
967;BME280;56108;48.730;9.304;2023-08-31T04:39:11;96968.59;;;11.67;100.00
967;BME280;56108;48.730;9.304;2023-08-31T04:44:34;96950.50;;;11.49;100.00
967;BME280;56108;48.730;9.304;2023-08-31T04:47:24;96953.75;;;11.53;100.00
967;BME280;56108;48.730;9.304;2023-08-31T04:50:14;96951.28;;;11.61;100.00
967;BME280;56108;48.730;9.304;2023-08-31T04:53:08;96953.13;;;11.61;100.00
967;BME280;56108;48.730;9.304;2023-08-31T04:55:44;96952.53;;;11.78;100.00
967;BME280;56108;48.730;9.304;2023-08-31T04:59:11;96963.13;;;11.68;100.00
967;BME280;56108;48.730;9.304;2023-08-31T05:05:46;96984.00;;;11.95;100.00
967;BME280;56108;48.730;9.304;2023-08-31T05:08:21;96987.38;;;11.97;100.00
967;BME280;56108;48.730;9.304;2023-08-31T05:11:02;97002.53;;;11.97;100.00
967;BME280;56108;48.730;9.304;2023-08-31T05:13:28;97013.59;;;12.13;100.00
967;BME280;56108;48.730;9.304;2023-08-31T05:15:46;97023.28;;;12.14;100.00
967;BME280;56108;48.730;9.304;2023-08-31T05:17:55;97032.41;;;12.12;100.00
967;BME280;56108;48.730;9.304;2023-08-31T05:20:07;97035.25;;;12.20;100.00
967;BME280;56108;48.730;9.304;2023-08-31T05:22:16;97039.34;;;12.24;100.00
967;BME280;56108;48.730;9.304;2023-08-31T05:24:26;97048.88;;;12.26;100.00
967;BME280;56108;48.730;9.304;2023-08-31T05:26:39;97055.56;;;12.32;100.00
967;BME280;56108;48.730;9.304;2023-08-31T05:28:47;97073.44;;;12.41;100.00
967;BME280;56108;48.730;9.304;2023-08-31T05:30:59;97088.47;;;12.42;100.00
967;BME280;56108;48.730;9.304;2023-08-31T05:33:10;97093.38;;;12.58;100.00
967;BME280;56108;48.730;9.304;2023-08-31T05:35:17;97114.56;;;12.60;100.00
967;BME280;56108;48.730;9.304;2023-08-31T05:37:25;97124.59;;;12.67;100.00
967;BME280;56108;48.730;9.304;2023-08-31T05:39:31;97128.84;;;12.70;100.00
967;BME280;56108;48.730;9.304;2023-08-31T05:41:43;97131.75;;;12.67;100.00
967;BME280;56108;48.730;9.304;2023-08-31T05:44:04;97131.59;;;12.59;100.00
967;BME280;56108;48.730;9.304;2023-08-31T05:46:12;97127.41;;;12.66;100.00
967;BME280;56108;48.730;9.304;2023-08-31T05:48:18;97131.97;;;12.75;100.00
967;BME280;56108;48.730;9.304;2023-08-31T05:50:29;97135.53;;;12.85;100.00
967;BME280;56108;48.730;9.304;2023-08-31T05:52:37;97149.00;;;12.84;100.00
967;BME280;56108;48.730;9.304;2023-08-31T05:54:49;97151.88;;;12.92;100.00
967;BME280;56108;48.730;9.304;2023-08-31T05:57:02;97163.53;;;12.91;100.00
967;BME280;56108;48.730;9.304;2023-08-31T05:59:10;97164.28;;;13.02;100.00
967;BME280;56108;48.730;9.304;2023-08-31T06:01:18;97173.16;;;13.03;100.00
967;BME280;56108;48.730;9.304;2023-08-31T06:03:27;97179.66;;;13.10;100.00
967;BME280;56108;48.730;9.304;2023-08-31T06:05:35;97183.22;;;13.20;100.00
967;BME280;56108;48.730;9.304;2023-08-31T06:07:44;97187.56;;;13.12;100.00
967;BME280;56108;48.730;9.304;2023-08-31T06:09:52;97188.13;;;13.15;100.00
967;BME280;56108;48.730;9.304;2023-08-31T06:12:03;97188.00;;;13.17;100.00
967;BME280;56108;48.730;9.304;2023-08-31T06:14:11;97188.50;;;13.22;100.00
967;BME280;56108;48.730;9.304;2023-08-31T06:16:21;97196.66;;;13.30;100.00
967;BME280;56108;48.730;9.304;2023-08-31T06:18:31;97202.47;;;13.35;100.00
967;BME280;56108;48.730;9.304;2023-08-31T06:20:39;97208.75;;;13.24;100.00
967;BME280;56108;48.730;9.304;2023-08-31T06:22:47;97207.25;;;13.31;100.00
967;BME280;56108;48.730;9.304;2023-08-31T06:24:56;97214.28;;;13.32;100.00
967;BME280;56108;48.730;9.304;2023-08-31T06:27:06;97221.16;;;13.35;100.00
967;BME280;56108;48.730;9.304;2023-08-31T06:29:15;97229.97;;;13.47;100.00
967;BME280;56108;48.730;9.304;2023-08-31T06:31:25;97231.25;;;13.52;100.00
967;BME280;56108;48.730;9.304;2023-08-31T06:33:34;97242.47;;;13.77;100.00
967;BME280;56108;48.730;9.304;2023-08-31T06:35:42;97247.47;;;14.01;100.00
967;BME280;56108;48.730;9.304;2023-08-31T06:37:52;97259.47;;;14.06;100.00
967;BME280;56108;48.730;9.304;2023-08-31T06:40:10;97262.56;;;14.12;100.00
967;BME280;56108;48.730;9.304;2023-08-31T06:42:21;97255.84;;;14.27;100.00
967;BME280;56108;48.730;9.304;2023-08-31T06:44:31;97266.72;;;14.45;100.00
967;BME280;56108;48.730;9.304;2023-08-31T06:46:40;97274.66;;;14.66;100.00
967;BME280;56108;48.730;9.304;2023-08-31T06:48:48;97283.72;;;14.94;100.00
967;BME280;56108;48.730;9.304;2023-08-31T06:51:01;97282.16;;;15.10;100.00
967;BME280;56108;48.730;9.304;2023-08-31T06:53:10;97290.19;;;15.30;100.00
967;BME280;56108;48.730;9.304;2023-08-31T06:55:19;97294.63;;;15.68;100.00
967;BME280;56108;48.730;9.304;2023-08-31T06:57:30;97301.59;;;15.98;100.00
967;BME280;56108;48.730;9.304;2023-08-31T06:59:38;97307.91;;;16.07;100.00
967;BME280;56108;48.730;9.304;2023-08-31T07:01:46;97314.22;;;15.88;100.00
967;BME280;56108;48.730;9.304;2023-08-31T07:03:56;97312.25;;;15.80;100.00
967;BME280;56108;48.730;9.304;2023-08-31T07:06:01;97299.84;;;15.70;100.00
967;BME280;56108;48.730;9.304;2023-08-31T07:08:10;97301.41;;;15.62;100.00
967;BME280;56108;48.730;9.304;2023-08-31T07:10:18;97297.53;;;15.94;100.00
967;BME280;56108;48.730;9.304;2023-08-31T07:12:30;97301.00;;;16.04;100.00
967;BME280;56108;48.730;9.304;2023-08-31T07:14:38;97304.34;;;17.25;100.00
967;BME280;56108;48.730;9.304;2023-08-31T07:16:47;97321.16;;;19.64;91.08
967;BME280;56108;48.730;9.304;2023-08-31T07:18:55;97366.22;;;22.29;72.24
967;BME280;56108;48.730;9.304;2023-08-31T07:21:03;97407.94;;;24.45;58.99
967;BME280;56108;48.730;9.304;2023-08-31T07:23:15;97433.31;;;25.89;52.34
967;BME280;56108;48.730;9.304;2023-08-31T07:25:25;97461.81;;;27.26;47.73
967;BME280;56108;48.730;9.304;2023-08-31T07:27:37;97459.19;;;26.60;45.79
967;BME280;56108;48.730;9.304;2023-08-31T07:29:45;97463.50;;;27.20;46.14
967;BME280;56108;48.730;9.304;2023-08-31T07:31:54;97457.03;;;26.09;46.40
967;BME280;56108;48.730;9.304;2023-08-31T07:34:02;97441.59;;;24.72;50.23
967;BME280;56108;48.730;9.304;2023-08-31T07:36:10;97426.06;;;23.16;54.89
967;BME280;56108;48.730;9.304;2023-08-31T07:38:20;97417.19;;;22.63;57.37
967;BME280;56108;48.730;9.304;2023-08-31T07:40:25;97404.84;;;21.93;61.57
967;BME280;56108;48.730;9.304;2023-08-31T07:42:38;97396.81;;;21.00;67.85
967;BME280;56108;48.730;9.304;2023-08-31T07:44:46;97371.25;;;19.59;73.35
967;BME280;56108;48.730;9.304;2023-08-31T07:46:56;97362.16;;;18.76;80.21
967;BME280;56108;48.730;9.304;2023-08-31T07:49:05;97360.88;;;18.20;85.89
967;BME280;56108;48.730;9.304;2023-08-31T07:51:14;97351.81;;;17.95;90.61
967;BME280;56108;48.730;9.304;2023-08-31T07:53:22;97349.47;;;18.00;90.63
967;BME280;56108;48.730;9.304;2023-08-31T07:55:33;97346.78;;;18.00;94.21
967;BME280;56108;48.730;9.304;2023-08-31T07:57:43;97354.47;;;18.21;92.81
967;BME280;56108;48.730;9.304;2023-08-31T07:59:51;97353.34;;;18.32;95.40
967;BME280;56108;48.730;9.304;2023-08-31T08:02:00;97360.34;;;18.51;91.69
967;BME280;56108;48.730;9.304;2023-08-31T08:04:08;97353.69;;;18.29;89.64
967;BME280;56108;48.730;9.304;2023-08-31T08:06:16;97354.03;;;18.68;89.07
967;BME280;56108;48.730;9.304;2023-08-31T08:08:25;97354.34;;;18.65;91.10
967;BME280;56108;48.730;9.304;2023-08-31T08:10:33;97355.75;;;18.69;87.82
967;BME280;56108;48.730;9.304;2023-08-31T08:12:44;97356.97;;;18.83;87.12
967;BME280;56108;48.730;9.304;2023-08-31T08:14:52;97359.13;;;18.71;80.62
967;BME280;56108;48.730;9.304;2023-08-31T08:17:01;97357.47;;;18.44;79.66
967;BME280;56108;48.730;9.304;2023-08-31T08:19:09;97355.09;;;18.75;78.56
967;BME280;56108;48.730;9.304;2023-08-31T08:21:17;97369.88;;;18.37;73.38
967;BME280;56108;48.730;9.304;2023-08-31T08:23:25;97360.53;;;17.71;74.75
967;BME280;56108;48.730;9.304;2023-08-31T08:25:33;97359.69;;;17.89;77.03
967;BME280;56108;48.730;9.304;2023-08-31T08:27:44;97360.31;;;18.09;83.05
967;BME280;56108;48.730;9.304;2023-08-31T08:29:53;97369.00;;;18.29;77.63
967;BME280;56108;48.730;9.304;2023-08-31T08:32:01;97368.19;;;18.28;80.10
967;BME280;56108;48.730;9.304;2023-08-31T08:34:11;97380.88;;;18.44;72.63
967;BME280;56108;48.730;9.304;2023-08-31T08:36:19;97400.75;;;18.43;66.34
967;BME280;56108;48.730;9.304;2023-08-31T08:38:28;97394.16;;;18.71;68.95
967;BME280;56108;48.730;9.304;2023-08-31T08:40:36;97391.34;;;18.89;68.50
967;BME280;56108;48.730;9.304;2023-08-31T08:42:48;97415.75;;;19.22;62.71
967;BME280;56108;48.730;9.304;2023-08-31T08:44:55;97407.56;;;19.97;62.28
967;BME280;56108;48.730;9.304;2023-08-31T08:47:04;97410.91;;;20.15;62.46
967;BME280;56108;48.730;9.304;2023-08-31T08:49:13;97425.09;;;20.17;59.80
967;BME280;56108;48.730;9.304;2023-08-31T08:51:24;97440.75;;;20.63;55.97
967;BME280;56108;48.730;9.304;2023-08-31T08:53:33;97432.84;;;20.28;57.57
967;BME280;56108;48.730;9.304;2023-08-31T08:55:42;97424.91;;;20.27;58.96
967;BME280;56108;48.730;9.304;2023-08-31T08:57:53;97434.25;;;20.00;56.33
967;BME280;56108;48.730;9.304;2023-08-31T09:00:03;97431.19;;;19.70;58.06
967;BME280;56108;48.730;9.304;2023-08-31T09:02:11;97436.84;;;19.51;56.12
967;BME280;56108;48.730;9.304;2023-08-31T09:04:20;97445.31;;;19.48;56.17
967;BME280;56108;48.730;9.304;2023-08-31T09:06:28;97436.13;;;19.16;59.56
967;BME280;56108;48.730;9.304;2023-08-31T09:08:38;97421.84;;;19.40;61.68
967;BME280;56108;48.730;9.304;2023-08-31T09:10:48;97421.72;;;19.83;61.75
967;BME280;56108;48.730;9.304;2023-08-31T09:13:04;97426.97;;;19.76;63.24
967;BME280;56108;48.730;9.304;2023-08-31T09:15:13;97427.59;;;19.53;64.12
967;BME280;56108;48.730;9.304;2023-08-31T09:17:23;97442.19;;;19.18;62.59
967;BME280;56108;48.730;9.304;2023-08-31T09:19:33;97438.91;;;18.90;63.13
967;BME280;56108;48.730;9.304;2023-08-31T09:21:41;97433.53;;;18.64;65.64
967;BME280;56108;48.730;9.304;2023-08-31T09:23:56;97434.81;;;18.52;64.22
967;BME280;56108;48.730;9.304;2023-08-31T09:26:05;97441.31;;;18.41;63.16
967;BME280;56108;48.730;9.304;2023-08-31T09:28:16;97439.34;;;18.25;62.05
967;BME280;56108;48.730;9.304;2023-08-31T09:30:26;97428.38;;;18.19;62.09
967;BME280;56108;48.730;9.304;2023-08-31T09:32:35;97427.09;;;18.91;65.71
967;BME280;56108;48.730;9.304;2023-08-31T09:34:43;97445.66;;;20.34;57.98
967;BME280;56108;48.730;9.304;2023-08-31T09:36:49;97476.03;;;21.56;52.38
967;BME280;56108;48.730;9.304;2023-08-31T09:38:58;97471.19;;;21.74;51.71
967;BME280;56108;48.730;9.304;2023-08-31T09:41:07;97488.50;;;22.19;49.19
967;BME280;56108;48.730;9.304;2023-08-31T09:43:23;97498.06;;;21.53;47.90
967;BME280;56108;48.730;9.304;2023-08-31T09:45:33;97489.25;;;22.28;47.90
967;BME280;56108;48.730;9.304;2023-08-31T09:47:42;97485.31;;;21.61;49.69
967;BME280;56108;48.730;9.304;2023-08-31T09:49:51;97476.75;;;21.10;51.42
967;BME280;56108;48.730;9.304;2023-08-31T09:52:01;97469.81;;;20.44;53.77
967;BME280;56108;48.730;9.304;2023-08-31T09:54:13;97463.09;;;20.07;55.00
967;BME280;56108;48.730;9.304;2023-08-31T09:56:22;97454.81;;;20.01;57.51
967;BME280;56108;48.730;9.304;2023-08-31T09:58:34;97471.00;;;20.09;54.95
967;BME280;56108;48.730;9.304;2023-08-31T10:00:42;97486.03;;;21.16;49.83
967;BME280;56108;48.730;9.304;2023-08-31T10:02:49;97506.69;;;22.48;47.21
967;BME280;56108;48.730;9.304;2023-08-31T10:04:57;97522.31;;;22.46;42.87
967;BME280;56108;48.730;9.304;2023-08-31T10:07:10;97516.41;;;22.95;44.65
967;BME280;56108;48.730;9.304;2023-08-31T10:09:19;97514.59;;;23.76;43.75
967;BME280;56108;48.730;9.304;2023-08-31T10:11:28;97553.31;;;24.21;39.60
967;BME280;56108;48.730;9.304;2023-08-31T10:13:41;97532.97;;;24.81;40.34
967;BME280;56108;48.730;9.304;2023-08-31T10:15:46;97542.00;;;25.51;37.82
967;BME280;56108;48.730;9.304;2023-08-31T10:17:57;97548.47;;;25.43;37.69
967;BME280;56108;48.730;9.304;2023-08-31T10:20:10;97541.78;;;23.32;40.19
967;BME280;56108;48.730;9.304;2023-08-31T10:22:19;97517.13;;;23.33;42.64
967;BME280;56108;48.730;9.304;2023-08-31T10:27:17;97519.84;;;23.48;41.95
967;BME280;56108;48.730;9.304;2023-08-31T10:29:28;97523.19;;;23.80;42.25
967;BME280;56108;48.730;9.304;2023-08-31T10:31:37;97522.00;;;22.41;42.03
967;BME280;56108;48.730;9.304;2023-08-31T10:33:46;97515.25;;;21.91;44.16
967;BME280;56108;48.730;9.304;2023-08-31T10:35:54;97516.38;;;20.95;45.04
967;BME280;56108;48.730;9.304;2023-08-31T10:38:13;97502.91;;;21.26;46.33
967;BME280;56108;48.730;9.304;2023-08-31T10:40:19;97489.59;;;21.08;46.95
967;BME280;56108;48.730;9.304;2023-08-31T10:42:29;97491.56;;;20.83;47.40
967;BME280;56108;48.730;9.304;2023-08-31T10:44:41;97487.56;;;20.39;48.90
967;BME280;56108;48.730;9.304;2023-08-31T10:46:51;97482.66;;;20.34;50.40
967;BME280;56108;48.730;9.304;2023-08-31T10:49:00;97483.00;;;20.15;49.45
967;BME280;56108;48.730;9.304;2023-08-31T10:51:06;97485.88;;;20.54;49.41
967;BME280;56108;48.730;9.304;2023-08-31T10:53:14;97479.25;;;20.65;50.76
967;BME280;56108;48.730;9.304;2023-08-31T10:55:23;97493.78;;;21.19;46.39
967;BME280;56108;48.730;9.304;2023-08-31T10:57:31;97486.03;;;21.16;49.94
967;BME280;56108;48.730;9.304;2023-08-31T10:59:48;97486.47;;;20.89;49.39
967;BME280;56108;48.730;9.304;2023-08-31T11:01:58;97479.72;;;20.84;49.67
967;BME280;56108;48.730;9.304;2023-08-31T11:04:09;97483.47;;;20.67;48.91
967;BME280;56108;48.730;9.304;2023-08-31T11:06:15;97488.91;;;20.43;48.04
967;BME280;56108;48.730;9.304;2023-08-31T11:08:24;97492.78;;;20.40;48.41
967;BME280;56108;48.730;9.304;2023-08-31T11:10:32;97485.31;;;20.75;49.72
967;BME280;56108;48.730;9.304;2023-08-31T11:12:41;97484.53;;;20.58;49.20
967;BME280;56108;48.730;9.304;2023-08-31T11:14:50;97491.47;;;20.52;49.45
967;BME280;56108;48.730;9.304;2023-08-31T11:16:59;97506.66;;;20.21;47.39
967;BME280;56108;48.730;9.304;2023-08-31T11:19:11;97495.34;;;20.33;48.16
967;BME280;56108;48.730;9.304;2023-08-31T11:21:20;97497.88;;;20.11;48.57
967;BME280;56108;48.730;9.304;2023-08-31T11:23:28;97491.31;;;20.05;49.08
967;BME280;56108;48.730;9.304;2023-08-31T11:25:36;97489.59;;;19.96;49.00
967;BME280;56108;48.730;9.304;2023-08-31T11:27:53;97493.66;;;20.08;49.08
967;BME280;56108;48.730;9.304;2023-08-31T11:30:11;97482.47;;;20.44;49.36
967;BME280;56108;48.730;9.304;2023-08-31T11:32:19;97487.41;;;20.48;48.78
967;BME280;56108;48.730;9.304;2023-08-31T11:34:27;97482.50;;;20.52;49.39
967;BME280;56108;48.730;9.304;2023-08-31T11:36:36;97480.28;;;20.55;48.77
967;BME280;56108;48.730;9.304;2023-08-31T11:38:47;97489.78;;;20.27;45.87
967;BME280;56108;48.730;9.304;2023-08-31T11:40:56;97484.53;;;20.42;47.06
967;BME280;56108;48.730;9.304;2023-08-31T11:43:05;97478.69;;;20.85;49.07
967;BME280;56108;48.730;9.304;2023-08-31T11:45:18;97479.72;;;20.84;48.14
967;BME280;56108;48.730;9.304;2023-08-31T11:47:27;97476.28;;;20.99;48.08
967;BME280;56108;48.730;9.304;2023-08-31T11:49:35;97475.75;;;21.03;48.37
967;BME280;56108;48.730;9.304;2023-08-31T11:51:48;97481.75;;;20.82;47.80
967;BME280;56108;48.730;9.304;2023-08-31T11:53:57;97473.31;;;20.77;48.09
967;BME280;56108;48.730;9.304;2023-08-31T11:56:06;97478.09;;;20.59;47.53
967;BME280;56108;48.730;9.304;2023-08-31T11:58:14;97475.19;;;21.16;48.76
967;BME280;56108;48.730;9.304;2023-08-31T12:00:28;97474.94;;;21.65;48.85
967;BME280;56108;48.730;9.304;2023-08-31T12:02:38;97485.97;;;21.63;46.28
967;BME280;56108;48.730;9.304;2023-08-31T12:04:47;97479.91;;;21.61;46.13
967;BME280;56108;48.730;9.304;2023-08-31T12:07:01;97480.03;;;21.29;47.02
967;BME280;56108;48.730;9.304;2023-08-31T12:09:09;97471.22;;;21.35;47.02
967;BME280;56108;48.730;9.304;2023-08-31T12:11:19;97463.63;;;22.07;48.33
967;BME280;56108;48.730;9.304;2023-08-31T12:13:26;97463.84;;;22.44;45.74
967;BME280;56108;48.730;9.304;2023-08-31T12:15:39;97481.38;;;22.56;45.63
967;BME280;56108;48.730;9.304;2023-08-31T12:17:48;97475.28;;;22.54;45.15
967;BME280;56108;48.730;9.304;2023-08-31T12:20:02;97481.13;;;22.05;46.63
967;BME280;56108;48.730;9.304;2023-08-31T12:22:13;97478.69;;;21.64;47.79
967;BME280;56108;48.730;9.304;2023-08-31T12:24:21;97472.94;;;21.36;47.10
967;BME280;56108;48.730;9.304;2023-08-31T12:26:29;97470.88;;;21.38;47.42
967;BME280;56108;48.730;9.304;2023-08-31T12:28:38;97470.91;;;21.61;47.78
967;BME280;56108;48.730;9.304;2023-08-31T12:30:51;97460.13;;;21.30;48.75
967;BME280;56108;48.730;9.304;2023-08-31T12:32:59;97464.31;;;21.24;48.15
967;BME280;56108;48.730;9.304;2023-08-31T12:35:08;97454.97;;;21.04;48.16
967;BME280;56108;48.730;9.304;2023-08-31T12:37:16;97439.94;;;20.93;49.16
967;BME280;56108;48.730;9.304;2023-08-31T12:39:25;97443.56;;;20.77;51.21
967;BME280;56108;48.730;9.304;2023-08-31T12:41:33;97440.75;;;20.38;51.20
967;BME280;56108;48.730;9.304;2023-08-31T12:43:41;97440.28;;;20.18;50.47
967;BME280;56108;48.730;9.304;2023-08-31T12:45:52;97441.16;;;19.86;52.19
967;BME280;56108;48.730;9.304;2023-08-31T12:48:01;97440.16;;;19.95;51.29